createdAt,value
2018-07-28T00:03:52.359Z,22.60
2018-07-28T00:06:24.457Z,22.60
2018-07-28T00:08:58.220Z,22.60
2018-07-28T00:11:26.695Z,22.50
2018-07-28T00:13:55.276Z,22.60
2018-07-28T00:16:25.796Z,22.50
2018-07-28T00:18:56.543Z,22.50
2018-07-28T00:23:54.344Z,22.50
2018-07-28T00:26:23.707Z,22.40
2018-07-28T00:29:08.214Z,22.40
2018-07-28T00:31:37.460Z,22.40
2018-07-28T00:34:07.300Z,22.40
2018-07-28T00:36:35.763Z,22.40
2018-07-28T00:39:06.920Z,22.30
2018-07-28T00:41:35.702Z,22.30
2018-07-28T00:44:05.453Z,22.30
2018-07-28T00:46:34.762Z,22.30
2018-07-28T00:49:03.627Z,22.30
2018-07-28T00:54:14.149Z,22.30
2018-07-28T00:56:44.037Z,22.30
2018-07-28T00:59:13.151Z,22.30
2018-07-28T01:01:42.516Z,22.20
2018-07-28T01:04:12.595Z,22.20
2018-07-28T01:06:42.554Z,22.20
2018-07-28T01:09:16.226Z,22.20
2018-07-28T01:11:45.843Z,22.20
2018-07-28T01:14:14.152Z,22.10
2018-07-28T01:16:43.336Z,22.10
2018-07-28T01:19:11.666Z,22.10
2018-07-28T01:21:40.472Z,22.10
2018-07-28T01:24:09.039Z,22.10
2018-07-28T01:26:38.041Z,22.10
2018-07-28T01:29:12.106Z,22.10
2018-07-28T01:31:41.712Z,22.10
2018-07-28T01:34:10.025Z,22.00
2018-07-28T01:36:40.210Z,22.00
2018-07-28T01:39:10.041Z,22.00
2018-07-28T01:41:38.362Z,22.00
2018-07-28T01:44:07.239Z,22.00
2018-07-28T01:46:35.503Z,22.00
2018-07-28T01:49:04.703Z,22.00
2018-07-28T01:51:34.967Z,22.00
2018-07-28T01:54:03.233Z,22.00
2018-07-28T01:56:31.871Z,22.00
2018-07-28T01:59:00.249Z,22.00
2018-07-28T02:01:28.857Z,22.00
2018-07-28T02:03:57.566Z,21.90
2018-07-28T02:06:26.280Z,21.90
2018-07-28T02:08:54.483Z,22.00
2018-07-28T02:11:22.831Z,22.00
2018-07-28T02:13:51.059Z,22.00
2018-07-28T02:16:19.398Z,22.00
2018-07-28T02:18:47.733Z,22.00
2018-07-28T02:21:16.018Z,22.00
2018-07-28T02:23:44.268Z,21.90
2018-07-28T02:26:13.465Z,21.90
2018-07-28T02:28:41.878Z,21.90
2018-07-28T02:31:10.334Z,21.80
2018-07-28T02:33:38.577Z,21.80
2018-07-28T02:36:07.534Z,21.80
2018-07-28T02:38:35.854Z,21.80
2018-07-28T02:41:04.151Z,21.80
2018-07-28T02:43:32.463Z,21.80
2018-07-28T02:46:00.764Z,21.80
2018-07-28T02:48:29.075Z,21.80
2018-07-28T02:50:57.294Z,21.70
2018-07-28T02:53:25.829Z,21.70
2018-07-28T02:55:54.177Z,21.70
2018-07-28T02:58:22.839Z,21.70
2018-07-28T03:00:51.172Z,21.60
2018-07-28T03:03:19.555Z,21.60
2018-07-28T03:05:47.898Z,21.60
2018-07-28T03:08:16.641Z,21.60
2018-07-28T03:10:45.151Z,21.50
2018-07-28T03:13:13.758Z,21.50
2018-07-28T03:15:42.051Z,21.50
2018-07-28T03:18:15.724Z,21.50
2018-07-28T03:20:45.747Z,21.50
2018-07-28T03:23:14.299Z,21.40
2018-07-28T03:25:42.831Z,21.40
2018-07-28T03:28:11.144Z,21.40
2018-07-28T03:30:39.620Z,21.40
2018-07-28T03:33:08.347Z,21.40
2018-07-28T03:35:36.929Z,21.40
2018-07-28T03:38:05.291Z,21.40
2018-07-28T03:40:34.302Z,21.40
2018-07-28T03:43:03.407Z,21.40
2018-07-28T03:45:32.310Z,21.40
2018-07-28T03:48:05.850Z,21.40
2018-07-28T03:50:34.720Z,21.40
2018-07-28T03:53:02.971Z,21.40
2018-07-28T03:55:32.412Z,21.40
2018-07-28T03:58:00.754Z,21.40
2018-07-28T04:02:57.114Z,21.40
2018-07-28T04:05:25.414Z,21.40
2018-07-28T04:07:53.717Z,21.40
2018-07-28T04:10:21.995Z,21.40
2018-07-28T04:12:50.815Z,21.40
2018-07-28T04:15:19.183Z,21.50
2018-07-28T04:17:55.744Z,21.50
2018-07-28T04:20:25.272Z,21.60
2018-07-28T04:22:54.495Z,21.60
2018-07-28T04:25:22.950Z,21.60
2018-07-28T04:27:52.388Z,21.60
2018-07-28T04:30:20.677Z,21.60
2018-07-28T04:32:51.303Z,21.70
2018-07-28T04:35:19.538Z,21.70
2018-07-28T04:37:49.307Z,21.70
2018-07-28T04:40:18.777Z,21.70
2018-07-28T04:42:47.521Z,21.70
2018-07-28T04:45:16.205Z,21.70
2018-07-28T04:47:45.138Z,21.80
2018-07-28T04:50:14.426Z,21.80
2018-07-28T04:52:42.680Z,21.90
2018-07-28T04:55:11.609Z,21.90
2018-07-28T04:57:50.280Z,21.90
2018-07-28T05:00:19.580Z,22.00
2018-07-28T05:02:50.559Z,22.00
2018-07-28T05:05:20.870Z,22.00
2018-07-28T05:08:00.856Z,22.00
2018-07-28T05:10:34.202Z,22.10
2018-07-28T05:13:08.180Z,22.10
2018-07-28T05:15:37.712Z,22.20
2018-07-28T05:18:45.641Z,22.30
2018-07-28T05:21:16.222Z,22.30
2018-07-28T05:23:45.230Z,22.40
2018-07-28T05:26:14.443Z,22.40
2018-07-28T05:32:05.595Z,22.40
2018-07-28T05:34:37.971Z,22.50
2018-07-28T05:37:17.215Z,22.50
2018-07-28T05:43:31.634Z,22.70
2018-07-28T05:46:13.413Z,22.70
2018-07-28T05:51:41.000Z,22.80
2018-07-28T06:05:42.979Z,23.30
2018-07-28T06:19:36.782Z,23.70
2018-07-28T06:22:15.700Z,23.80
2018-07-28T06:24:50.253Z,23.90
2018-07-28T06:27:23.762Z,24.00
2018-07-28T06:30:00.135Z,24.00
2018-07-28T06:32:41.113Z,24.10
2018-07-28T06:35:22.994Z,24.20
2018-07-28T06:37:57.935Z,24.20
2018-07-28T06:48:53.343Z,24.60
2018-07-28T06:51:37.655Z,24.70
2018-07-28T06:57:00.156Z,24.90
2018-07-28T07:02:20.659Z,25.10
2018-07-28T07:05:02.260Z,25.20
2018-07-28T07:10:28.515Z,25.40
2018-07-28T07:13:04.299Z,25.50
2018-07-28T07:15:39.431Z,25.60
2018-07-28T07:20:51.025Z,25.70
2018-07-28T07:31:46.768Z,26.10
2018-07-28T07:34:29.848Z,26.20
2018-07-28T08:14:09.121Z,27.80
2018-07-28T08:16:45.156Z,28.00
2018-07-28T08:28:43.168Z,28.40
2018-07-28T08:34:11.323Z,28.60
2018-07-28T08:39:41.391Z,28.80
2018-07-28T09:17:59.168Z,30.40
2018-07-28T09:23:33.399Z,30.70
2018-07-28T09:26:18.831Z,30.80
2018-07-28T09:29:01.385Z,30.70
2018-07-28T09:31:48.184Z,30.70
2018-07-28T09:34:37.512Z,30.70
2018-07-28T09:43:08.228Z,30.70
2018-07-28T09:56:46.521Z,30.70
2018-07-28T09:59:22.646Z,30.70
2018-07-28T10:01:51.365Z,30.90
2018-07-28T10:04:30.363Z,30.90
2018-07-28T10:07:09.596Z,30.70
2018-07-28T10:09:50.030Z,30.60
2018-07-28T10:12:28.847Z,30.40
2018-07-28T10:14:58.888Z,30.00
2018-07-28T10:20:08.640Z,29.40
2018-07-28T10:22:52.685Z,29.50
2018-07-28T10:28:21.743Z,29.80
2018-07-28T10:30:51.865Z,30.20
2018-07-28T10:33:21.764Z,30.50
2018-07-28T10:35:56.002Z,30.80
2018-07-28T10:38:30.789Z,31.00
2018-07-28T10:41:00.519Z,31.30
2018-07-28T10:43:30.594Z,31.50
2018-07-28T10:46:02.293Z,31.60
2018-07-28T10:51:17.580Z,31.70
2018-07-28T10:56:38.826Z,31.80
2018-07-28T11:02:12.025Z,32.10
2018-07-28T11:04:43.792Z,31.90
2018-07-28T11:07:12.948Z,31.80
2018-07-28T11:09:52.450Z,31.80
2018-07-28T11:12:23.069Z,31.70
2018-07-28T11:14:52.265Z,31.70
2018-07-28T11:17:23.873Z,31.80
2018-07-28T11:20:00.538Z,31.90
2018-07-28T11:22:37.567Z,32.00
2018-07-28T11:25:17.859Z,31.90
2018-07-28T11:28:09.504Z,31.80
2018-07-28T11:33:28.679Z,31.60
2018-07-28T11:41:08.087Z,31.60
2018-07-28T11:43:54.647Z,31.50
2018-07-28T11:46:25.017Z,31.30
2018-07-28T11:48:58.150Z,31.20
2018-07-28T11:51:41.125Z,31.20
2018-07-28T11:54:14.892Z,31.30
2018-07-28T11:56:45.608Z,31.40
2018-07-28T11:59:16.889Z,31.40
2018-07-28T12:01:46.815Z,31.40
2018-07-28T12:04:16.349Z,31.40
2018-07-28T12:06:52.325Z,31.40
2018-07-28T12:09:24.922Z,31.30
2018-07-28T12:11:59.333Z,31.30
2018-07-28T12:14:30.365Z,31.40
2018-07-28T12:17:02.196Z,31.60
2018-07-28T12:19:42.204Z,31.60
2018-07-28T12:22:13.977Z,31.60
2018-07-28T12:24:45.738Z,31.70
2018-07-28T12:27:18.088Z,31.80
2018-07-28T12:29:52.589Z,31.70
2018-07-28T12:32:28.590Z,31.60
2018-07-28T12:34:58.297Z,31.50
2018-07-28T12:37:27.711Z,31.40
2018-07-28T12:39:56.045Z,31.30
2018-07-28T12:42:27.234Z,31.30
2018-07-28T12:44:56.798Z,31.30
2018-07-28T12:47:29.252Z,31.20
2018-07-28T12:50:02.846Z,31.20
2018-07-28T12:52:33.827Z,31.20
2018-07-28T12:55:06.022Z,31.30
2018-07-28T12:57:36.442Z,31.30
2018-07-28T13:03:26.774Z,31.60
2018-07-28T13:06:04.007Z,31.60
2018-07-28T13:08:46.076Z,31.60
2018-07-28T13:11:23.314Z,31.50
2018-07-28T13:13:57.086Z,31.40
2018-07-28T13:16:29.795Z,31.30
2018-07-28T13:19:15.448Z,31.30
2018-07-28T13:21:50.273Z,31.30
2018-07-28T13:24:28.725Z,31.20
2018-07-28T13:27:02.065Z,31.10
2018-07-28T13:29:58.517Z,31.10
2018-07-28T13:32:27.791Z,31.10
2018-07-28T13:34:59.797Z,31.00
2018-07-28T13:37:29.882Z,31.00
2018-07-28T13:39:59.970Z,31.00
2018-07-28T13:42:32.985Z,31.10
2018-07-28T13:45:03.359Z,31.10
2018-07-28T13:47:34.110Z,31.20
2018-07-28T13:52:35.295Z,31.30
2018-07-28T13:55:05.493Z,31.30
2018-07-28T13:57:35.507Z,31.20
2018-07-28T14:00:11.665Z,31.20
2018-07-28T14:02:40.524Z,31.20
2018-07-28T14:05:08.787Z,31.20
2018-07-28T14:07:48.387Z,31.10
2018-07-28T14:10:23.690Z,31.10
2018-07-28T14:12:52.534Z,31.10
2018-07-28T14:15:21.133Z,31.10
2018-07-28T14:17:53.373Z,31.10
2018-07-28T14:20:21.723Z,30.90
2018-07-28T14:22:50.656Z,30.90
2018-07-28T14:25:19.631Z,30.80
2018-07-28T14:27:51.096Z,30.80
2018-07-28T14:30:22.458Z,30.70
2018-07-28T14:32:52.058Z,30.70
2018-07-28T14:35:22.119Z,30.70
2018-07-28T14:38:05.182Z,30.70
2018-07-28T14:40:40.219Z,30.70
2018-07-28T14:43:09.644Z,30.70
2018-07-28T14:45:38.650Z,30.70
2018-07-28T14:48:09.240Z,30.70
2018-07-28T14:50:42.162Z,30.70
2018-07-28T14:53:11.169Z,30.60
2018-07-28T14:55:44.425Z,30.50
2018-07-28T14:58:13.675Z,30.50
2018-07-28T15:00:43.683Z,30.70
2018-07-28T15:03:14.722Z,31.10
2018-07-28T15:05:49.247Z,32.00
2018-07-28T15:08:48.655Z,32.90
2018-07-28T15:11:24.704Z,33.80
2018-07-28T15:14:02.270Z,34.60
2018-07-28T15:16:35.150Z,35.10
2018-07-28T15:19:09.499Z,35.30
2018-07-28T15:21:40.124Z,35.70
2018-07-28T15:24:12.631Z,36.10
2018-07-28T15:26:42.742Z,36.60
2018-07-28T15:29:17.822Z,36.70
2018-07-28T15:31:48.818Z,37.00
2018-07-28T15:34:18.462Z,37.20
2018-07-28T15:36:51.165Z,37.50
2018-07-28T15:39:20.001Z,37.70
2018-07-28T15:41:49.286Z,38.00
2018-07-28T15:44:17.999Z,38.20
2018-07-28T15:49:54.709Z,38.70
2018-07-28T15:52:28.972Z,38.90
2018-07-28T15:54:57.680Z,38.80
2018-07-28T15:57:29.108Z,38.80
2018-07-28T16:00:00.723Z,38.80
2018-07-28T16:02:34.105Z,39.00
2018-07-28T16:07:32.008Z,39.40
2018-07-28T16:10:02.043Z,39.40
2018-07-28T16:12:32.140Z,39.40
2018-07-28T16:15:00.715Z,39.20
2018-07-28T16:17:35.341Z,38.90
2018-07-28T16:20:03.934Z,38.80
2018-07-28T16:22:34.110Z,38.60
2018-07-28T16:25:07.200Z,38.30
2018-07-28T16:27:35.714Z,38.10
2018-07-28T16:30:05.110Z,38.20
2018-07-28T16:32:37.186Z,37.90
2018-07-28T16:35:08.815Z,37.10
2018-07-28T16:40:05.984Z,34.50
2018-07-28T16:42:38.285Z,33.50
2018-07-28T16:48:26.399Z,31.90
2018-07-28T16:51:00.533Z,31.40
2018-07-28T16:53:39.235Z,30.90
2018-07-28T16:56:14.199Z,30.50
2018-07-28T16:58:44.621Z,30.20
2018-07-28T17:03:57.464Z,29.70
2018-07-28T17:06:28.806Z,29.60
2018-07-28T17:12:02.517Z,29.40
2018-07-28T17:14:34.878Z,29.30
2018-07-28T17:17:07.034Z,29.20
2018-07-28T17:28:28.653Z,28.70
2018-07-28T17:31:03.398Z,28.70
2018-07-28T17:33:42.034Z,28.60
2018-07-28T17:36:22.934Z,28.50
2018-07-28T17:39:02.432Z,28.50
2018-07-28T17:41:40.046Z,28.50
2018-07-28T17:47:04.015Z,28.30
2018-07-28T17:53:09.664Z,28.00
2018-07-28T17:58:47.777Z,27.70
2018-07-28T18:01:22.164Z,27.60
2018-07-28T18:04:04.559Z,27.50
2018-07-28T18:06:40.389Z,27.40
2018-07-28T18:09:14.112Z,27.30
2018-07-28T18:11:52.065Z,27.20
2018-07-28T18:14:36.844Z,27.10
2018-07-28T18:17:11.603Z,27.10
2018-07-28T18:26:51.523Z,26.80
2018-07-28T19:02:02.427Z,26.00
2018-07-28T19:04:39.662Z,25.90
2018-07-28T19:07:20.303Z,25.90
2018-07-28T19:14:50.782Z,25.80
2018-07-28T19:17:30.828Z,25.80
2018-07-28T19:20:26.202Z,25.60
2018-07-28T19:32:07.809Z,25.50
2018-07-28T19:34:53.951Z,25.40
2018-07-28T19:40:30.127Z,25.30
2018-07-28T19:56:17.626Z,25.10
2018-07-28T19:59:27.293Z,25.10
2018-07-28T20:02:15.337Z,25.20
2018-07-28T20:04:56.057Z,25.30
2018-07-28T20:10:29.557Z,25.50
2018-07-28T20:19:59.006Z,25.60
2018-07-28T20:28:09.875Z,25.30
2018-07-28T20:30:48.035Z,25.30
2018-07-28T20:33:24.974Z,25.30
2018-07-28T20:42:19.842Z,24.50
2018-07-28T20:47:29.590Z,23.80
2018-07-28T20:52:52.695Z,23.50
2018-07-28T20:55:23.024Z,23.40
2018-07-28T20:57:52.854Z,23.40
2018-07-28T21:00:31.356Z,23.30
2018-07-28T21:03:05.654Z,23.30
2018-07-28T21:05:54.630Z,23.30
2018-07-28T21:08:26.035Z,23.30
2018-07-28T21:10:55.079Z,23.30
2018-07-28T21:15:54.432Z,23.20
2018-07-28T21:18:33.399Z,23.20
2018-07-28T21:21:53.451Z,23.30
2018-07-28T21:24:27.897Z,23.40
2018-07-28T21:26:57.227Z,23.50
2018-07-28T21:29:57.059Z,23.50
2018-07-28T21:32:27.002Z,23.50
2018-07-28T21:35:03.713Z,23.50
2018-07-28T21:37:32.309Z,23.60
2018-07-28T21:40:01.831Z,23.60
2018-07-28T21:42:31.323Z,23.70
2018-07-28T21:45:03.431Z,23.70
2018-07-28T21:47:33.455Z,23.70
2018-07-28T21:50:10.272Z,23.70
2018-07-28T21:52:41.482Z,23.70
2018-07-28T21:55:09.799Z,23.60
2018-07-28T21:57:38.092Z,23.50
2018-07-28T22:00:09.831Z,23.50
2018-07-28T22:02:38.401Z,23.50
2018-07-28T22:05:13.838Z,23.40
2018-07-28T22:07:48.626Z,23.40
2018-07-28T22:10:18.101Z,23.40
2018-07-28T22:12:50.565Z,23.20
2018-07-28T22:15:20.743Z,23.10
2018-07-28T22:17:49.404Z,23.00
2018-07-28T22:20:23.102Z,23.00
2018-07-28T22:22:53.271Z,23.00
2018-07-28T22:25:29.235Z,23.00
2018-07-28T22:28:03.099Z,23.00
2018-07-28T22:36:08.532Z,23.00
2018-07-28T22:38:42.024Z,23.00
2018-07-28T22:41:11.671Z,22.90
2018-07-28T22:46:19.846Z,22.80
2018-07-28T22:48:59.088Z,22.80
2018-07-28T22:51:30.452Z,22.80
2018-07-28T22:54:04.567Z,22.80
2018-07-28T22:56:34.926Z,22.80
2018-07-28T22:59:13.533Z,22.80
2018-07-28T23:01:42.032Z,22.80
2018-07-28T23:04:10.963Z,22.80
2018-07-28T23:06:39.326Z,22.90
2018-07-28T23:09:09.500Z,22.90
2018-07-28T23:14:06.244Z,23.00
2018-07-28T23:16:36.137Z,23.00
2018-07-28T23:19:04.828Z,23.00
2018-07-28T23:21:33.166Z,23.10
2018-07-28T23:24:02.432Z,23.00
2018-07-28T23:26:32.055Z,23.00
2018-07-28T23:29:05.689Z,23.00
2018-07-28T23:31:34.286Z,22.90
2018-07-28T23:34:02.677Z,22.90
2018-07-28T23:36:31.814Z,22.80
2018-07-28T23:39:00.305Z,22.80
2018-07-28T23:41:28.609Z,22.80
2018-07-28T23:43:57.282Z,22.90
2018-07-28T23:46:25.582Z,22.90
2018-07-28T23:48:54.282Z,22.90
2018-07-28T23:51:22.718Z,22.90
2018-07-28T23:53:51.054Z,23.00
2018-07-28T23:58:47.578Z,23.00
